CheckWX is a tool to help pilots better visualize weather data.  It is not intended as a substitute for an official pre-flight weather briefing.

23:24:15 UTC

PASD TAF
Sand Point Airport
Sand Point, Alaska, USA
PASD 161722Z 1618/1718 27008KT P6SM FEW025 BKN045 FM170300 29007KT P6SM BKN025 AMD LTD TO CLD VIS AND WIND

Nov-16@
18:00 UTC

Nov-16 @ 18:00 UTC

Nov-17@
03:00 UTC

Nov-17 @ 03:00 UTC

PASD 161722Z 1618/1718 27008KT P6SM FEW025 BKN045
Wind
  • 270° at 8 KTS
Cloud Levels
  • Few at 2,500' AGL
  • Broken at 4,500' AGL

Nov-17@
03:00 UTC

Nov-17 @ 03:00 UTC

Nov-17@
18:00 UTC

Nov-17 @ 18:00 UTC

FM170300 29007KT P6SM BKN025 AMD LTD TO CLD VIS AND WIND

From

From Standard forecast or significant change

Wind
  • 290° at 7 KTS
Cloud Levels
  • Broken at 2,500' AGL